Time;durP1;ratioP1;P1;durP2;ratioP2;P2;SDS_P1;SDS_P2;PMS_P1;PMS_P2;Temp;Humidity;BMP_temperature;BMP_pressure;BME280_temperature;BME280_humidity;BME280_pressure;Samples;Min_cycle;Max_cycle;Signal;HPM_P1;HPM_P2
2021/04/28 00:00:34;;;;;;;4.60;3.07;;;7.70;52.90;;;;;;5070729;28;20062;-76
2021/04/28 00:03:02;;;;;;;5.67;3.23;;;7.70;52.70;;;;;;5050644;28;20099;-77
2021/04/28 00:05:28;;;;;;;7.07;3.57;;;7.70;52.70;;;;;;5032881;28;20095;-74
2021/04/28 00:07:54;;;;;;;7.13;3.50;;;7.70;53.20;;;;;;5016350;28;20490;-74
2021/04/28 00:10:24;;;;;;;6.47;3.30;;;7.70;52.90;;;;;;5050163;28;20382;-75
2021/04/28 00:12:49;;;;;;;6.30;3.43;;;7.70;53.00;;;;;;5050135;28;20033;-75
2021/04/28 00:15:19;;;;;;;5.10;3.47;;;7.70;53.20;;;;;;5031857;28;20033;-75
2021/04/28 00:17:45;;;;;;;4.93;3.53;;;7.70;53.00;;;;;;5050355;28;20036;-74
2021/04/28 00:20:13;;;;;;;7.10;4.50;;;7.70;53.30;;;;;;5049394;28;20083;-75
2021/04/28 00:22:40;;;;;;;4.93;3.53;;;7.80;54.20;;;;;;5050205;28;20067;-74
2021/04/28 00:25:07;;;;;;;6.80;3.80;;;7.80;53.90;;;;;;5031504;28;20498;-77
2021/04/28 00:27:33;;;;;;;5.40;3.67;;;7.80;53.10;;;;;;5032039;28;20028;-75
2021/04/28 00:29:59;;;;;;;6.57;3.73;;;7.80;53.40;;;;;;5046784;28;20044;-74
2021/04/28 00:32:25;;;;;;;6.77;4.20;;;7.80;53.40;;;;;;5018008;28;20305;-74
2021/04/28 00:34:50;;;;;;;7.77;3.90;;;7.80;54.00;;;;;;5039096;28;20129;-76
2021/04/28 00:37:16;;;;;;;5.93;3.70;;;7.80;53.40;;;;;;5014852;28;20169;-75
2021/04/28 00:39:41;;;;;;;4.73;3.37;;;7.70;53.30;;;;;;5032293;28;20032;-75
2021/04/28 00:42:07;;;;;;;7.67;3.70;;;7.70;53.40;;;;;;5031582;28;20029;-79
2021/04/28 00:44:33;;;;;;;5.00;4.07;;;7.60;53.60;;;;;;5032100;28;20387;-74
2021/04/28 00:46:59;;;;;;;6.23;3.77;;;7.60;54.30;;;;;;5032308;28;20152;-75
2021/04/28 00:49:25;;;;;;;6.17;4.07;;;7.60;54.00;;;;;;5049465;28;21048;-75
2021/04/28 00:51:51;;;;;;;4.77;3.83;;;7.60;53.70;;;;;;5028247;28;20032;-75
2021/04/28 00:54:18;;;;;;;7.40;4.13;;;7.50;54.20;;;;;;5051296;28;20523;-75
2021/04/28 00:56:43;;;;;;;5.80;4.17;;;7.50;54.30;;;;;;5051866;28;20595;-75
2021/04/28 00:59:15;;;;;;;7.03;3.50;;;7.50;54.20;;;;;;5050164;28;20037;-78
2021/04/28 01:01:41;;;;;;;7.27;3.57;;;7.50;55.30;;;;;;5069255;28;20028;-75
2021/04/28 01:04:06;;;;;;;7.27;4.60;;;7.60;55.10;;;;;;5056514;28;20048;-75
2021/04/28 01:06:33;;;;;;;5.67;3.57;;;7.60;55.70;;;;;;5034723;28;20097;-74
2021/04/28 01:09:00;;;;;;;9.03;3.93;;;7.70;55.30;;;;;;5069559;28;20105;-75
2021/04/28 01:11:27;;;;;;;6.77;4.17;;;7.70;55.20;;;;;;5051487;28;20024;-75
2021/04/28 01:13:56;;;;;;;7.47;3.77;;;7.60;54.80;;;;;;5051665;28;20021;-74
2021/04/28 01:16:22;;;;;;;7.70;4.37;;;7.50;54.60;;;;;;5068789;28;20021;-74
2021/04/28 01:18:48;;;;;;;4.73;3.77;;;7.50;54.90;;;;;;5050999;28;20029;-74
2021/04/28 01:21:14;;;;;;;4.50;3.80;;;7.40;54.90;;;;;;5049238;28;20051;-78
2021/04/28 01:23:40;;;;;;;7.73;3.90;;;7.30;55.10;;;;;;5051547;28;20115;-74
2021/04/28 01:26:06;;;;;;;5.70;3.63;;;7.30;55.50;;;;;;5035219;28;20060;-74
2021/04/28 01:28:34;;;;;;;5.17;3.60;;;7.20;55.60;;;;;;5050624;28;20032;-75
2021/04/28 01:31:08;;;;;;;6.40;4.23;;;7.20;56.00;;;;;;5051232;28;20028;-76
2021/04/28 01:33:38;;;;;;;5.63;4.07;;;7.10;56.10;;;;;;5067292;28;20170;-75
2021/04/28 01:36:08;;;;;;;7.77;4.27;;;7.10;56.30;;;;;;5050643;28;20040;-75
2021/04/28 01:38:40;;;;;;;7.13;4.20;;;7.10;57.30;;;;;;5063078;28;20033;-74
2021/04/28 01:41:07;;;;;;;7.47;4.38;;;7.10;57.10;;;;;;5049730;28;20044;-75
2021/04/28 01:43:33;;;;;;;8.23;4.60;;;7.10;56.40;;;;;;5049079;28;20051;-74
2021/04/28 01:45:59;;;;;;;5.70;4.00;;;7.00;56.60;;;;;;5031567;28;20021;-74
2021/04/28 01:48:24;;;;;;;7.97;3.77;;;7.00;57.00;;;;;;5030904;28;20041;-75
2021/04/28 01:50:52;;;;;;;8.93;4.07;;;6.90;57.20;;;;;;5049772;28;20032;-75
2021/04/28 01:53:22;;;;;;;4.57;3.97;;;6.80;57.60;;;;;;5049117;28;20382;-78
2021/04/28 01:55:50;;;;;;;6.73;4.10;;;6.80;57.60;;;;;;5051827;28;20044;-76
2021/04/28 01:58:16;;;;;;;5.10;4.20;;;6.80;57.90;;;;;;5034948;28;20041;-77
2021/04/28 02:00:42;;;;;;;7.67;4.60;;;6.80;58.30;;;;;;5053479;28;20028;-74
2021/04/28 02:03:08;;;;;;;7.40;4.23;;;6.70;58.10;;;;;;5034718;28;20063;-75
2021/04/28 02:05:34;;;;;;;4.47;3.90;;;6.70;58.50;;;;;;5052104;28;20037;-75
2021/04/28 02:08:00;;;;;;;7.27;4.37;;;6.70;58.60;;;;;;5035220;28;20179;-75
2021/04/28 02:10:26;;;;;;;9.80;4.50;;;6.60;58.50;;;;;;5039637;28;20082;-75
2021/04/28 02:12:53;;;;;;;10.70;4.27;;;6.60;58.90;;;;;;5072904;28;20429;-75
2021/04/28 02:15:21;;;;;;;7.73;4.20;;;6.60;59.10;;;;;;5054584;28;20513;-78
2021/04/28 02:17:53;;;;;;;10.07;4.13;;;6.50;59.10;;;;;;5054390;28;20482;-75
2021/04/28 02:20:19;;;;;;;8.30;3.83;;;6.50;59.50;;;;;;5054841;28;20028;-76
2021/04/28 02:22:46;;;;;;;8.33;4.43;;;6.50;59.90;;;;;;5054098;28;20056;-76
2021/04/28 02:25:12;;;;;;;6.80;4.30;;;6.50;60.00;;;;;;5054718;28;20039;-74
2021/04/28 02:27:38;;;;;;;6.90;4.20;;;6.40;60.00;;;;;;5071884;28;20040;-76
2021/04/28 02:30:13;;;;;;;7.43;4.83;;;6.40;60.20;;;;;;5070798;28;20036;-74
2021/04/28 02:32:38;;;;;;;9.70;4.67;;;6.40;60.10;;;;;;5053733;28;20389;-74
2021/04/28 02:35:05;;;;;;;5.97;4.57;;;6.30;60.30;;;;;;5072482;28;20045;-74
2021/04/28 02:37:32;;;;;;;8.63;4.20;;;6.30;60.30;;;;;;5053749;28;20033;-74
2021/04/28 02:40:04;;;;;;;8.37;3.60;;;6.20;60.50;;;;;;5054469;28;20127;-75
2021/04/28 02:42:30;;;;;;;8.45;4.28;;;6.20;60.60;;;;;;5071635;28;20052;-75
2021/04/28 02:44:58;;;;;;;6.63;4.30;;;6.20;60.70;;;;;;5042376;28;20148;-74
2021/04/28 02:47:25;;;;;;;5.97;3.87;;;6.10;60.80;;;;;;5034093;28;20032;-78
2021/04/28 02:49:52;;;;;;;7.83;4.43;;;6.10;61.00;;;;;;5034490;28;20029;-75
2021/04/28 02:52:19;;;;;;;8.60;4.00;;;6.10;61.10;;;;;;5052232;28;20029;-75
2021/04/28 02:54:45;;;;;;;6.70;4.50;;;6.10;61.20;;;;;;5033349;28;20303;-75
2021/04/28 02:57:13;;;;;;;10.10;4.77;;;6.00;61.30;;;;;;5034191;28;20120;-75
2021/04/28 02:59:38;;;;;;;8.67;4.73;;;6.00;61.50;;;;;;5051184;28;20040;-75
2021/04/28 03:02:07;;;;;;;7.23;3.93;;;6.00;61.60;;;;;;5034953;28;20040;-76
2021/04/28 03:04:37;;;;;;;7.93;4.17;;;6.00;61.80;;;;;;5032668;28;20490;-75
2021/04/28 03:07:03;;;;;;;8.43;4.47;;;6.00;61.80;;;;;;5033419;28;20040;-75
2021/04/28 03:09:29;;;;;;;6.77;4.33;;;6.00;62.00;;;;;;5033272;28;20048;-78
2021/04/28 03:11:55;;;;;;;5.03;4.23;;;5.90;62.00;;;;;;5017038;28;20025;-74
2021/04/28 03:14:20;;;;;;;5.63;4.40;;;5.90;62.00;;;;;;5033470;28;20128;-76
2021/04/28 03:16:46;;;;;;;6.07;4.83;;;5.90;62.30;;;;;;5051293;28;20209;-76
2021/04/28 03:19:12;;;;;;;6.87;4.57;;;5.80;62.30;;;;;;5034258;28;20384;-75
2021/04/28 03:21:42;;;;;;;9.67;5.07;;;5.80;62.40;;;;;;5032994;28;20029;-74
2021/04/28 03:24:09;;;;;;;9.30;4.40;;;5.80;62.50;;;;;;5033713;28;20025;-74
2021/04/28 03:26:35;;;;;;;6.47;4.17;;;5.70;62.60;;;;;;5032428;28;20497;-75
2021/04/28 03:29:00;;;;;;;7.10;4.27;;;5.70;62.80;;;;;;5051101;28;20044;-75
2021/04/28 03:31:26;;;;;;;5.43;3.97;;;5.80;63.00;;;;;;5049893;28;20040;-75
2021/04/28 03:33:52;;;;;;;5.40;4.70;;;5.80;63.00;;;;;;5032386;28;20025;-75
2021/04/28 03:36:18;;;;;;;9.57;4.63;;;5.80;63.20;;;;;;5051109;28;20526;-75
2021/04/28 03:38:44;;;;;;;10.03;4.57;;;5.70;63.20;;;;;;5050335;28;20039;-74
2021/04/28 03:41:09;;;;;;;6.43;5.03;;;5.70;63.30;;;;;;5033206;28;20025;-75
2021/04/28 03:43:35;;;;;;;9.90;4.90;;;5.70;63.60;;;;;;5015705;28;20525;-77
2021/04/28 03:46:01;;;;;;;9.53;4.80;;;5.60;63.60;;;;;;5033162;28;20040;-73
2021/04/28 03:48:27;;;;;;;7.40;5.40;;;5.50;63.80;;;;;;5060140;28;20028;-75
2021/04/28 03:50:52;;;;;;;9.03;5.40;;;5.50;63.90;;;;;;5052063;28;20090;-74
2021/04/28 03:53:18;;;;;;;5.93;4.90;;;5.40;64.10;;;;;;5036105;28;20035;-75
2021/04/28 03:55:44;;;;;;;9.30;4.57;;;5.50;64.30;;;;;;5052175;28;20024;-75
2021/04/28 03:58:10;;;;;;;8.47;4.90;;;5.50;64.30;;;;;;5070825;28;20056;-75
2021/04/28 04:00:35;;;;;;;7.70;5.10;;;5.50;64.50;;;;;;5032580;28;20442;-79
2021/04/28 04:03:01;;;;;;;8.07;5.27;;;5.50;64.30;;;;;;5035370;28;20021;-75
2021/04/28 04:05:27;;;;;;;12.97;5.57;;;5.50;64.20;;;;;;5022999;28;20072;-75
2021/04/28 04:07:52;;;;;;;9.83;5.40;;;5.40;64.20;;;;;;5004372;28;20064;-74
2021/04/28 04:10:18;;;;;;;7.70;5.00;;;5.40;64.50;;;;;;5040926;28;20033;-74
2021/04/28 04:12:44;;;;;;;10.30;4.93;;;5.50;64.70;;;;;;5034601;28;20039;-77
2021/04/28 04:15:10;;;;;;;6.73;4.93;;;5.50;64.50;;;;;;5015795;28;20044;-76
2021/04/28 04:17:36;;;;;;;9.00;5.70;;;5.60;64.80;;;;;;5032465;28;20097;-76
2021/04/28 04:20:04;;;;;;;6.97;4.70;;;5.60;64.70;;;;;;5031804;28;20029;-75
2021/04/28 04:22:29;;;;;;;10.90;5.80;;;5.60;64.90;;;;;;5050554;28;20052;-75
2021/04/28 04:24:55;;;;;;;9.07;5.23;;;5.70;64.60;;;;;;5032257;28;20041;-74
2021/04/28 04:27:21;;;;;;;9.20;5.67;;;5.70;64.50;;;;;;5065946;28;20442;-75
2021/04/28 04:29:47;;;;;;;10.07;5.77;;;5.70;64.40;;;;;;5019960;28;20494;-75
2021/04/28 04:32:12;;;;;;;8.13;5.03;;;5.90;64.20;;;;;;5051593;28;20033;-75
2021/04/28 04:34:38;;;;;;;9.33;5.40;;;6.00;63.80;;;;;;5035560;28;20071;-78
2021/04/28 04:37:04;;;;;;;9.93;5.10;;;6.10;63.40;;;;;;5069597;28;20386;-75
2021/04/28 04:39:30;;;;;;;9.00;5.60;;;6.10;63.20;;;;;;5052085;28;20056;-75
2021/04/28 04:41:56;;;;;;;9.40;5.00;;;6.30;63.20;;;;;;5069161;28;20517;-75
2021/04/28 04:44:21;;;;;;;12.67;5.70;;;6.50;62.80;;;;;;5052298;28;20117;-75
2021/04/28 04:46:47;;;;;;;12.93;6.10;;;7.00;62.20;;;;;;5051792;28;20528;-75
2021/04/28 04:49:13;;;;;;;9.43;5.83;;;7.80;60.60;;;;;;5069937;28;20116;-75
2021/04/28 04:51:39;;;;;;;9.00;5.53;;;8.60;58.60;;;;;;5051113;28;20033;-75
2021/04/28 04:54:06;;;;;;;8.80;5.67;;;9.40;54.90;;;;;;5034063;28;20029;-74
2021/04/28 04:56:33;;;;;;;9.77;5.70;;;9.70;52.60;;;;;;5035271;28;20032;-74
2021/04/28 04:58:58;;;;;;;7.50;5.23;;;10.20;52.20;;;;;;5067650;28;20068;-74
2021/04/28 05:01:24;;;;;;;9.03;5.53;;;10.40;51.60;;;;;;5015633;28;20128;-75
2021/04/28 05:03:50;;;;;;;12.33;5.23;;;10.70;50.40;;;;;;5014565;28;20045;-75
2021/04/28 05:06:16;;;;;;;9.07;5.37;;;11.20;49.60;;;;;;5015390;28;20421;-75
2021/04/28 05:08:41;;;;;;;10.70;5.70;;;11.50;48.50;;;;;;5015623;28;20454;-75
2021/04/28 05:11:07;;;;;;;8.37;5.53;;;11.80;47.70;;;;;;5031099;28;20112;-76
2021/04/28 05:13:33;;;;;;;10.23;4.93;;;12.40;47.20;;;;;;5032055;28;20398;-77
2021/04/28 05:15:58;;;;;;;11.33;5.63;;;12.80;46.40;;;;;;5031085;28;20037;-75
2021/04/28 05:18:24;;;;;;;9.00;6.17;;;13.10;45.10;;;;;;5015388;28;20032;-75
2021/04/28 05:20:50;;;;;;;9.83;5.83;;;13.40;43.40;;;;;;5031344;28;20041;-75
2021/04/28 05:23:15;;;;;;;8.53;5.93;;;13.30;43.30;;;;;;5049791;28;20060;-76
2021/04/28 05:25:41;;;;;;;13.00;5.97;;;12.80;44.10;;;;;;5031792;28;20158;-76
2021/04/28 05:28:07;;;;;;;7.23;5.90;;;13.30;44.20;;;;;;5030942;28;20102;-75
2021/04/28 05:30:33;;;;;;;14.33;6.70;;;13.60;43.40;;;;;;5017708;28;20033;-76
2021/04/28 05:32:59;;;;;;;8.17;6.20;;;13.60;42.60;;;;;;5034819;28;20042;-76
2021/04/28 05:35:25;;;;;;;8.83;5.97;;;13.60;43.00;;;;;;5035681;28;20168;-74
2021/04/28 05:37:51;;;;;;;10.83;6.50;;;13.00;43.50;;;;;;5018403;28;20116;-77
2021/04/28 05:40:17;;;;;;;10.20;6.57;;;12.40;45.10;;;;;;5062240;28;20091;-74
2021/04/28 05:42:43;;;;;;;8.73;6.00;;;12.50;45.50;;;;;;5074229;28;20020;-75
2021/04/28 05:45:10;;;;;;;9.63;6.43;;;13.00;45.60;;;;;;5038530;28;20120;-75
2021/04/28 05:47:37;;;;;;;11.70;6.67;;;13.90;44.00;;;;;;5073604;28;20032;-75
2021/04/28 05:50:05;;;;;;;11.40;6.47;;;14.60;42.10;;;;;;5047154;28;20482;-75
2021/04/28 05:52:30;;;;;;;10.13;6.57;;;14.70;41.10;;;;;;5019041;28;20087;-75
2021/04/28 05:54:56;;;;;;;12.07;6.20;;;14.70;41.00;;;;;;5018175;28;20503;-75
2021/04/28 05:57:22;;;;;;;13.07;6.93;;;14.40;41.80;;;;;;5018892;28;20051;-75
2021/04/28 05:59:47;;;;;;;8.60;6.33;;;14.00;42.30;;;;;;5035179;28;20375;-76
2021/04/28 06:02:13;;;;;;;21.83;7.33;;;13.20;44.00;;;;;;5052106;28;20021;-75
2021/04/28 06:04:39;;;;;;;10.53;6.20;;;12.60;45.20;;;;;;5049178;28;20098;-74
2021/04/28 06:07:05;;;;;;;17.07;7.30;;;12.10;47.10;;;;;;5071263;28;20553;-75
2021/04/28 06:09:31;;;;;;;10.23;6.20;;;11.80;47.80;;;;;;5072829;28;20536;-74
2021/04/28 06:11:57;;;;;;;13.83;6.77;;;11.80;48.80;;;;;;5072125;28;20028;-75
2021/04/28 06:14:23;;;;;;;14.17;6.80;;;12.00;48.90;;;;;;5036340;28;20068;-75
2021/04/28 06:16:49;;;;;;;14.37;6.87;;;12.10;49.50;;;;;;5040408;28;20549;-75
2021/04/28 06:19:15;;;;;;;12.33;6.70;;;12.30;48.20;;;;;;5034570;28;20681;-75
2021/04/28 06:21:41;;;;;;;12.30;6.40;;;12.40;48.20;;;;;;5027720;28;20036;-75
2021/04/28 06:24:08;;;;;;;12.00;6.53;;;12.50;48.00;;;;;;5042078;28;20037;-75
2021/04/28 06:26:34;;;;;;;13.93;6.40;;;12.50;47.60;;;;;;5061486;28;20111;-74
2021/04/28 06:28:59;;;;;;;10.90;6.83;;;12.70;47.80;;;;;;5037175;28;20125;-75
2021/04/28 06:31:25;;;;;;;12.77;7.20;;;13.20;47.00;;;;;;5034473;28;20041;-75
2021/04/28 06:33:51;;;;;;;10.17;6.73;;;14.30;44.70;;;;;;5040737;28;20471;-75
2021/04/28 06:36:17;;;;;;;12.57;7.80;;;14.90;42.70;;;;;;5066214;28;20033;-75
2021/04/28 06:38:43;;;;;;;11.55;7.72;;;15.20;41.80;;;;;;5071809;28;20573;-74
2021/04/28 06:41:09;;;;;;;11.57;7.60;;;15.60;40.30;;;;;;5053072;28;20095;-75
2021/04/28 06:43:34;;;;;;;12.27;7.40;;;15.90;39.90;;;;;;5054414;28;20035;-73
2021/04/28 06:46:00;;;;;;;14.00;7.30;;;16.20;40.00;;;;;;5072058;28;20385;-77
2021/04/28 06:48:25;;;;;;;14.73;7.50;;;17.10;38.50;;;;;;5054388;28;20370;-74
2021/04/28 06:50:52;;;;;;;12.38;7.32;;;17.50;36.80;;;;;;5019680;28;20489;-75
2021/04/28 06:53:18;;;;;;;16.02;7.65;;;17.70;36.30;;;;;;5044995;28;20040;-74
2021/04/28 06:55:44;;;;;;;12.85;8.23;;;18.00;36.90;;;;;;5057790;28;20040;-74
2021/04/28 06:58:10;;;;;;;11.45;7.38;;;18.40;36.10;;;;;;5043131;28;20036;-74
2021/04/28 07:00:36;;;;;;;10.00;7.03;;;18.50;35.60;;;;;;5069675;28;20040;-74
2021/04/28 07:03:01;;;;;;;13.75;8.20;;;18.30;35.00;;;;;;5051555;28;20127;-77
2021/04/28 07:05:27;;;;;;;10.70;7.50;;;18.30;35.90;;;;;;5051589;28;20105;-74
2021/04/28 07:07:54;;;;;;;13.57;7.82;;;18.80;35.10;;;;;;5042753;28;20033;-73
2021/04/28 07:10:21;;;;;;;12.30;7.60;;;18.90;34.50;;;;;;5032484;28;20029;-73
2021/04/28 07:12:47;;;;;;;19.98;14.90;;;19.10;34.70;;;;;;5033790;28;20111;-73
2021/04/28 07:15:13;;;;;;;19.02;12.80;;;19.30;35.70;;;;;;5032975;28;20171;-74
2021/04/28 07:17:39;;;;;;;14.23;7.97;;;19.80;34.40;;;;;;5051418;28;20029;-73
2021/04/28 07:20:08;;;;;;;14.73;8.80;;;19.90;32.90;;;;;;5016526;28;20034;-77
2021/04/28 07:22:35;;;;;;;10.73;7.70;;;19.90;32.20;;;;;;5051261;28;20025;-74
2021/04/28 07:25:01;;;;;;;10.60;7.40;;;19.80;32.30;;;;;;5051307;28;20467;-74
2021/04/28 07:27:26;;;;;;;11.73;7.05;;;19.60;31.90;;;;;;5050779;28;20037;-74
2021/04/28 07:29:52;;;;;;;9.82;6.97;;;19.20;32.30;;;;;;5051120;28;20459;-73
2021/04/28 07:32:18;;;;;;;15.32;7.47;;;19.00;32.20;;;;;;5042181;28;20522;-74
2021/04/28 07:34:44;;;;;;;12.93;7.95;;;18.70;32.80;;;;;;5026063;28;20037;-73
2021/04/28 07:37:10;;;;;;;10.23;7.15;;;18.50;32.90;;;;;;5024977;28;20106;-74
2021/04/28 07:39:36;;;;;;;11.32;7.00;;;18.70;33.00;;;;;;5040374;28;20032;-74
2021/04/28 07:42:02;;;;;;;14.55;7.60;;;19.00;32.20;;;;;;5026529;28;20020;-73
2021/04/28 07:44:30;;;;;;;13.40;7.80;;;18.70;32.10;;;;;;5061232;28;20033;-74
2021/04/28 07:46:57;;;;;;;13.93;8.70;;;18.50;33.20;;;;;;5028241;28;20121;-73
2021/04/28 07:49:22;;;;;;;10.52;6.90;;;18.60;33.80;;;;;;5059838;28;20025;-74
2021/04/28 07:51:48;;;;;;;12.98;8.55;;;18.90;33.10;;;;;;5042654;28;20044;-73
2021/04/28 07:54:14;;;;;;;13.68;8.80;;;19.20;33.40;;;;;;5023936;28;20032;-72
2021/04/28 07:56:39;;;;;;;12.18;8.73;;;19.70;33.10;;;;;;5034882;28;20035;-72
2021/04/28 07:59:05;;;;;;;10.32;7.90;;;20.20;32.20;;;;;;5070554;28;20106;-73
2021/04/28 08:01:31;;;;;;;9.90;7.32;;;20.60;31.60;;;;;;5045302;28;20025;-72
2021/04/28 08:03:59;;;;;;;13.85;8.75;;;20.30;31.20;;;;;;5015471;28;21029;-73
2021/04/28 08:06:25;;;;;;;12.80;8.20;;;20.60;32.40;;;;;;5049080;28;20486;-73
2021/04/28 08:08:50;;;;;;;12.90;9.50;;;21.30;30.80;;;;;;5055548;28;20035;-74
2021/04/28 08:11:16;;;;;;;11.10;7.30;;;21.60;31.40;;;;;;5049784;28;20035;-73
2021/04/28 08:13:42;;;;;;;13.60;7.82;;;21.60;30.00;;;;;;5070909;28;20351;-73
2021/04/28 08:16:08;;;;;;;11.93;7.80;;;21.20;31.10;;;;;;5053329;28;20414;-73
2021/04/28 08:18:34;;;;;;;13.63;7.55;;;21.40;30.30;;;;;;5069760;28;20029;-73
2021/04/28 08:21:00;;;;;;;17.17;9.85;;;21.70;30.00;;;;;;5052482;28;20136;-73
2021/04/28 08:23:30;;;;;;;12.10;7.68;;;22.30;30.70;;;;;;5051420;28;20032;-74
2021/04/28 08:25:57;;;;;;;12.18;7.75;;;22.90;29.50;;;;;;5052433;28;20442;-73
2021/04/28 08:28:22;;;;;;;14.30;8.15;;;23.20;29.10;;;;;;5069333;28;20029;-74
2021/04/28 08:30:48;;;;;;;12.90;9.10;;;22.90;29.40;;;;;;5068033;28;20021;-73
2021/04/28 08:33:14;;;;;;;9.73;7.45;;;22.80;28.90;;;;;;5069487;28;20025;-76
2021/04/28 08:35:40;;;;;;;11.73;7.78;;;22.80;29.30;;;;;;5034506;28;20033;-73
2021/04/28 08:38:06;;;;;;;10.35;8.32;;;22.60;29.00;;;;;;5052037;28;20071;-73
2021/04/28 08:40:33;;;;;;;9.65;7.85;;;22.90;29.10;;;;;;5068881;28;20059;-73
2021/04/28 08:42:59;;;;;;;17.42;8.50;;;22.80;29.00;;;;;;5069943;28;20033;-73
2021/04/28 08:45:24;;;;;;;14.63;8.35;;;22.70;28.80;;;;;;5068989;28;20032;-74
2021/04/28 08:47:50;;;;;;;14.48;8.48;;;22.00;29.40;;;;;;5034892;28;20120;-74
2021/04/28 08:50:16;;;;;;;10.98;8.60;;;21.70;29.70;;;;;;5051454;28;20565;-75
2021/04/28 08:52:42;;;;;;;12.25;8.25;;;21.50;30.00;;;;;;5051366;28;20038;-73
2021/04/28 08:55:09;;;;;;;11.70;8.65;;;21.00;31.10;;;;;;5034899;28;20032;-74
2021/04/28 08:57:36;;;;;;;14.18;8.48;;;21.10;30.80;;;;;;5069057;28;20040;-74
2021/04/28 09:00:06;;;;;;;14.88;8.70;;;21.10;31.00;;;;;;5052113;28;20107;-73
2021/04/28 09:02:32;;;;;;;12.70;8.07;;;21.10;31.40;;;;;;5018836;28;20052;-73
2021/04/28 09:05:14;;;;;;;10.30;8.05;;;21.40;31.20;;;;;;5043213;28;20487;-74
2021/04/28 09:07:42;;;;;;;16.25;8.85;;;21.80;31.10;;;;;;5034945;28;20087;-74
2021/04/28 09:10:13;;;;;;;15.05;8.60;;;21.70;30.60;;;;;;5054115;28;20029;-74
2021/04/28 09:12:40;;;;;;;13.40;9.18;;;21.40;30.60;;;;;;5035183;28;20025;-75
2021/04/28 09:15:11;;;;;;;18.85;9.20;;;21.00;31.50;;;;;;5052258;28;20044;-74
2021/04/28 09:17:53;;;;;;;15.32;9.40;;;20.80;31.30;;;;;;5051756;28;20055;-73
2021/04/28 09:20:29;;;;;;;12.87;9.30;;;21.00;31.30;;;;;;5053564;28;20033;-77
2021/04/28 09:23:08;;;;;;;15.75;9.10;;;20.80;32.20;;;;;;5051995;28;20040;-74
2021/04/28 09:25:42;;;;;;;13.52;9.00;;;21.20;31.80;;;;;;5051144;28;20474;-74
2021/04/28 09:28:37;;;;;;;16.73;10.02;;;21.10;31.30;;;;;;5051801;28;20043;-73
2021/04/28 09:31:06;;;;;;;11.65;8.90;;;21.10;31.20;;;;;;5046743;28;20045;-74
2021/04/28 09:33:40;;;;;;;18.27;8.88;;;21.00;31.40;;;;;;5050817;28;20029;-74
2021/04/28 09:36:06;;;;;;;15.48;9.18;;;21.30;31.40;;;;;;5052923;28;20398;-74
2021/04/28 09:38:49;;;;;;;16.17;9.65;;;21.50;31.00;;;;;;5052439;28;20032;-74
2021/04/28 09:41:41;;;;;;;11.93;8.90;;;21.20;31.60;;;;;;5052726;28;20025;-72
2021/04/28 09:44:19;;;;;;;16.27;9.43;;;20.90;31.20;;;;;;5053106;28;20058;-72
2021/04/28 09:47:11;;;;;;;12.70;9.40;;;21.10;32.00;;;;;;5050681;28;20045;-74
2021/04/28 09:49:50;;;;;;;15.18;9.48;;;21.50;30.90;;;;;;5040996;28;20076;-73
2021/04/28 09:52:30;;;;;;;15.93;9.82;;;21.60;30.40;;;;;;5038173;28;20033;-73
2021/04/28 09:55:13;;;;;;;16.55;9.65;;;21.20;31.10;;;;;;5031428;28;20041;-74
2021/04/28 09:57:42;;;;;;;15.27;10.38;;;21.60;32.10;;;;;;5033110;28;20033;-75
2021/04/28 10:00:22;;;;;;;16.92;10.15;;;21.70;30.60;;;;;;5032768;28;20033;-73
2021/04/28 10:03:00;;;;;;;13.35;9.63;;;22.10;29.70;;;;;;5047668;28;20213;-74
2021/04/28 10:05:35;;;;;;;13.55;9.32;;;22.10;29.20;;;;;;5064803;28;20053;-77
2021/04/28 10:08:23;;;;;;;15.43;9.48;;;21.90;29.30;;;;;;5072578;28;20082;-73
2021/04/28 10:10:50;;;;;;;12.50;9.98;;;22.50;29.80;;;;;;5071764;28;20016;-73
2021/04/28 10:13:17;;;;;;;13.93;9.18;;;23.60;28.80;;;;;;5053998;28;20058;-75
2021/04/28 10:15:44;;;;;;;17.38;9.60;;;24.20;27.80;;;;;;5035872;28;20052;-74
2021/04/28 10:18:12;;;;;;;16.08;9.82;;;23.70;27.00;;;;;;5054794;28;20025;-72
2021/04/28 10:20:39;;;;;;;10.65;9.43;;;23.10;27.80;;;;;;5071723;28;20061;-74
2021/04/28 10:23:08;;;;;;;12.13;9.48;;;22.70;27.70;;;;;;5037862;28;20116;-74
2021/04/28 10:25:34;;;;;;;13.32;9.68;;;22.60;27.40;;;;;;5057722;28;20025;-74
2021/04/28 10:28:02;;;;;;;13.18;8.15;;;22.40;28.00;;;;;;5054462;28;20028;-73
2021/04/28 10:30:28;;;;;;;10.57;9.27;;;22.80;28.10;;;;;;5054127;28;20363;-74
2021/04/28 10:32:56;;;;;;;12.55;9.45;;;23.20;28.20;;;;;;5068244;28;20036;-74
2021/04/28 10:35:26;;;;;;;9.20;7.00;;;23.10;27.50;;;;;;5072291;28;20398;-74
2021/04/28 10:37:52;;;;;;;13.63;8.73;;;23.60;27.40;;;;;;5053321;28;20012;-74
2021/04/28 10:40:23;;;;;;;9.07;6.82;;;23.60;26.50;;;;;;5054604;28;20031;-74
2021/04/28 10:42:49;;;;;;;7.70;6.32;;;23.40;25.40;;;;;;5071003;28;20016;-74
2021/04/28 10:45:24;;;;;;;8.07;6.45;;;23.60;24.50;;;;;;5035664;28;20063;-74
2021/04/28 10:47:54;;;;;;;7.13;6.43;;;24.00;23.70;;;;;;5032607;28;20033;-76
2021/04/28 10:50:25;;;;;;;10.93;8.40;;;24.10;23.10;;;;;;5033964;28;20032;-75
2021/04/28 10:52:59;;;;;;;9.20;7.80;;;23.80;24.90;;;;;;5033039;28;20017;-74
2021/04/28 10:55:44;;;;;;;11.68;7.90;;;23.60;25.80;;;;;;5051764;28;20029;-74
2021/04/28 10:58:32;;;;;;;10.02;8.40;;;23.60;25.40;;;;;;5033998;28;20139;-76
2021/04/28 11:01:06;;;;;;;11.88;7.93;;;23.50;25.80;;;;;;5033321;28;20025;-74
2021/04/28 11:03:36;;;;;;;7.82;7.00;;;23.40;25.10;;;;;;5045317;28;20061;-75
2021/04/28 11:06:17;;;;;;;13.90;7.47;;;23.10;24.30;;;;;;5058910;28;20128;-74
2021/04/28 11:09:07;;;;;;;9.70;7.05;;;23.40;25.60;;;;;;5070729;28;20086;-74
2021/04/28 11:11:33;;;;;;;8.57;7.68;;;23.70;25.80;;;;;;5071479;28;20073;-74
2021/04/28 11:14:11;;;;;;;11.52;7.20;;;23.80;24.80;;;;;;5052588;28;20573;-74
2021/04/28 11:16:45;;;;;;;9.57;8.60;;;23.40;25.20;;;;;;5048611;28;20413;-77
2021/04/28 11:19:22;;;;;;;11.35;8.38;;;22.70;26.20;;;;;;5053386;28;20031;-73
2021/04/28 11:22:08;;;;;;;11.65;8.93;;;22.80;26.20;;;;;;5052969;28;20382;-74
2021/04/28 11:24:59;;;;;;;13.30;10.18;;;22.30;26.20;;;;;;5070045;28;20103;-73
2021/04/28 11:27:43;;;;;;;14.52;10.20;;;21.90;26.50;;;;;;5065562;28;20043;-74
2021/04/28 11:30:24;;;;;;;12.73;10.63;;;22.10;27.60;;;;;;5066238;28;20047;-73
2021/04/28 11:33:13;;;;;;;14.45;9.88;;;21.90;27.60;;;;;;5037603;28;20033;-75
2021/04/28 11:36:03;;;;;;;12.18;9.20;;;21.90;27.60;;;;;;5057253;28;20123;-77
2021/04/28 11:38:31;;;;;;;16.20;11.13;;;22.10;27.60;;;;;;5060549;28;20509;-75
2021/04/28 11:41:01;;;;;;;15.18;10.25;;;22.50;27.40;;;;;;5070176;28;20044;-74
2021/04/28 11:43:30;;;;;;;11.40;10.20;;;22.60;26.80;;;;;;5069684;28;20101;-76
2021/04/28 11:46:11;;;;;;;15.55;9.68;;;22.30;26.70;;;;;;5070104;28;20078;-75
2021/04/28 11:48:39;;;;;;;12.73;8.05;;;22.40;27.10;;;;;;5070922;28;20024;-75
2021/04/28 11:51:11;;;;;;;8.90;8.00;;;22.30;26.60;;;;;;5069835;28;20028;-76
2021/04/28 11:53:43;;;;;;;12.73;9.15;;;22.00;26.30;;;;;;5070141;28;20056;-73
2021/04/28 11:56:09;;;;;;;11.80;7.97;;;22.10;26.00;;;;;;5054276;28;20043;-76
2021/04/28 11:58:34;;;;;;;10.23;8.65;;;21.90;26.80;;;;;;5055588;28;20036;-75
2021/04/28 12:01:04;;;;;;;9.57;8.57;;;21.60;26.70;;;;;;5019428;28;20628;-76
2021/04/28 12:03:49;;;;;;;9.35;7.82;;;21.30;26.80;;;;;;5039706;28;20390;-74
2021/04/28 12:06:28;;;;;;;10.57;7.95;;;21.10;27.00;;;;;;5041950;28;20040;-75
2021/04/28 12:09:14;;;;;;;14.65;8.32;;;21.40;27.30;;;;;;5056512;28;20024;-74
2021/04/28 12:11:42;;;;;;;10.93;7.88;;;21.70;27.50;;;;;;5052539;28;20031;-73
2021/04/28 12:14:09;;;;;;;11.82;8.60;;;22.00;27.10;;;;;;5069607;28;20032;-73
2021/04/28 12:16:52;;;;;;;14.27;9.77;;;22.30;26.60;;;;;;5070423;28;20044;-76
2021/04/28 12:19:17;;;;;;;9.93;8.80;;;22.20;26.20;;;;;;5036378;28;20032;-75
2021/04/28 12:21:57;;;;;;;10.93;8.05;;;21.90;26.10;;;;;;5053289;28;20342;-75
2021/04/28 12:24:32;;;;;;;9.50;8.18;;;21.60;26.70;;;;;;5037632;28;20033;-75
2021/04/28 12:27:15;;;;;;;12.45;7.28;;;21.50;26.10;;;;;;5050989;28;20119;-74
2021/04/28 12:30:04;;;;;;;9.80;7.97;;;21.20;26.50;;;;;;5052387;28;20033;-76
2021/04/28 12:32:35;;;;;;;12.80;7.35;;;21.30;26.30;;;;;;5052409;28;20041;-75
2021/04/28 12:35:14;;;;;;;13.57;8.07;;;21.30;26.10;;;;;;5035782;28;20036;-74
2021/04/28 12:37:42;;;;;;;8.80;7.50;;;21.40;26.30;;;;;;5050188;28;20029;-75
2021/04/28 12:40:11;;;;;;;8.60;6.50;;;21.60;26.10;;;;;;5051287;28;20264;-75
2021/04/28 12:42:39;;;;;;;9.88;7.60;;;22.10;26.30;;;;;;5052381;28;20070;-74
2021/04/28 12:45:11;;;;;;;9.25;6.88;;;22.30;25.70;;;;;;5069056;28;20028;-75
2021/04/28 12:47:38;;;;;;;7.95;7.10;;;22.20;25.10;;;;;;5070376;28;20024;-75
2021/04/28 12:50:24;;;;;;;9.15;6.82;;;22.00;25.10;;;;;;5052038;28;20063;-75
2021/04/28 12:52:50;;;;;;;9.55;6.95;;;22.10;25.00;;;;;;5052564;28;20032;-76